LPE2391 SKCG-SPJC
Flight info
| Callsign | LPE2391 |
|---|---|
| Flight time | 3h 18m |
| Altitude | 35000 |
| Route | CTG2D CTG UM779 UGALU UL305 GIR/N0449F360 UL305 TOKAN UP776 ILROL |
| Aircraft | A320/M-SDE3FGHIRWY/LB1 |
Departure
| Time | 2026-04-23 22:29 |
|---|---|
| Airport | Rafael Nuñez International Airport (SKCG) |
Arrival
| Time | 2026-04-24 01:47 |
|---|---|
| Airport | Jorge Chávez International Airport (SPJC) |
| Time | Latitude | Longitude | Altitude | Speed | Heading |
|---|---|---|---|---|---|
| 2026-04-23 21:38 | 10.44642 | -75.51548 | 51 ft | 0 kts | 272° |
| 2026-04-23 22:15 | 10.44641 | -75.51539 | 51 ft | 4 kts | 272° |
| 2026-04-23 22:15 | 10.44640 | -75.51512 | 51 ft | 4 kts | 266° |
| 2026-04-23 22:16 | 10.44646 | -75.51487 | 50 ft | 4 kts | 232° |
| 2026-04-23 22:16 | 10.44660 | -75.51477 | 49 ft | 3 kts | 150° |
| 2026-04-23 22:16 | 10.44666 | -75.51481 | 51 ft | 0 kts | 148° |
| 2026-04-23 22:19 | 10.44666 | -75.51480 | 51 ft | 0 kts | 148° |
| 2026-04-23 22:19 | 10.44665 | -75.51480 | 51 ft | 1 kts | 148° |
| 2026-04-23 22:19 | 10.44641 | -75.51454 | 48 ft | 9 kts | 111° |
| 2026-04-23 22:20 | 10.44637 | -75.51390 | 51 ft | 10 kts | 81° |
| 2026-04-23 22:20 | 10.44638 | -75.51386 | 51 ft | 10 kts | 81° |
| 2026-04-23 22:20 | 10.44647 | -75.51323 | 51 ft | 8 kts | 95° |
| 2026-04-23 22:21 | 10.44624 | -75.51282 | 49 ft | 6 kts | 150° |
| 2026-04-23 22:21 | 10.44617 | -75.51279 | 51 ft | 6 kts | 160° |
| 2026-04-23 22:21 | 10.44589 | -75.51274 | 51 ft | 5 kts | 183° |
| 2026-04-23 22:22 | 10.44537 | -75.51273 | 51 ft | 13 kts | 174° |
| 2026-04-23 22:22 | 10.44431 | -75.51272 | 51 ft | 15 kts | 185° |
| 2026-04-23 22:22 | 10.44388 | -75.51276 | 51 ft | 14 kts | 185° |
| 2026-04-23 22:23 | 10.44372 | -75.51277 | 51 ft | 13 kts | 185° |
| 2026-04-23 22:23 | 10.44297 | -75.51283 | 51 ft | 7 kts | 184° |
| 2026-04-23 22:24 | 10.44272 | -75.51285 | 51 ft | 6 kts | 184° |
| 2026-04-23 22:24 | 10.44258 | -75.51286 | 51 ft | 7 kts | 184° |
| 2026-04-23 22:25 | 10.44255 | -75.51286 | 51 ft | 7 kts | 184° |
| 2026-04-23 22:25 | 10.44224 | -75.51288 | 51 ft | 11 kts | 184° |
| 2026-04-23 22:25 | 10.44201 | -75.51290 | 49 ft | 10 kts | 183° |
| 2026-04-23 22:25 | 10.44069 | -75.51298 | 51 ft | 27 kts | 183° |
| 2026-04-23 22:26 | 10.44060 | -75.51298 | 51 ft | 28 kts | 183° |
| 2026-04-23 22:26 | 10.44007 | -75.51301 | 51 ft | 29 kts | 183° |
| 2026-04-23 22:26 | 10.43806 | -75.51307 | 51 ft | 30 kts | 181° |
| 2026-04-23 22:26 | 10.43598 | -75.51315 | 51 ft | 30 kts | 183° |
| 2026-04-23 22:27 | 10.43387 | -75.51322 | 51 ft | 30 kts | 182° |
| 2026-04-23 22:27 | 10.43211 | -75.51296 | 49 ft | 23 kts | 139° |
| 2026-04-23 22:27 | 10.43097 | -75.51232 | 49 ft | 16 kts | 195° |
| 2026-04-23 22:27 | 10.43077 | -75.51321 | 49 ft | 14 kts | 298° |
| 2026-04-23 22:28 | 10.43160 | -75.51336 | 50 ft | 13 kts | 5° |
| 2026-04-23 22:28 | 10.43309 | -75.51327 | 51 ft | 46 kts | 2° |
| 2026-04-23 22:28 | 10.43871 | -75.51305 | 51 ft | 113 kts | 2° |
| 2026-04-23 22:28 | 10.44839 | -75.51266 | 70 ft | 161 kts | 2° |
| 2026-04-23 22:29 | 10.45945 | -75.51217 | 685 ft | 157 kts | 1° |
| 2026-04-23 22:29 | 10.46735 | -75.51159 | 1212 ft | 153 kts | 3° |
| 2026-04-23 22:29 | 10.46827 | -75.51154 | 1251 ft | 154 kts | 2° |
| 2026-04-23 22:30 | 10.47955 | -75.51147 | 1589 ft | 171 kts | 1° |
| 2026-04-23 22:30 | 10.49228 | -75.51113 | 1759 ft | 196 kts | 1° |
| 2026-04-23 22:30 | 10.50672 | -75.51067 | 1987 ft | 220 kts | 1° |
| 2026-04-23 22:30 | 10.52289 | -75.51011 | 2289 ft | 244 kts | 1° |
| 2026-04-23 22:31 | 10.54052 | -75.51092 | 2697 ft | 263 kts | 348° |
| 2026-04-23 22:31 | 10.55812 | -75.51673 | 3414 ft | 269 kts | 333° |
| 2026-04-23 22:31 | 10.57367 | -75.52729 | 4178 ft | 271 kts | 317° |
| 2026-04-23 22:31 | 10.58592 | -75.54191 | 4934 ft | 274 kts | 301° |
| 2026-04-23 22:32 | 10.59373 | -75.55962 | 5668 ft | 277 kts | 284° |
| 2026-04-23 22:32 | 10.59631 | -75.57909 | 6386 ft | 280 kts | 268° |
| 2026-04-23 22:32 | 10.59331 | -75.59840 | 7087 ft | 283 kts | 251° |
| 2026-04-23 22:32 | 10.59321 | -75.59874 | 7100 ft | 283 kts | 251° |
| 2026-04-23 22:33 | 10.58845 | -75.61035 | 7583 ft | 283 kts | 241° |
| 2026-04-23 22:33 | 10.57681 | -75.62657 | 8297 ft | 286 kts | 225° |
| 2026-04-23 22:33 | 10.56095 | -75.63877 | 9039 ft | 289 kts | 208° |
| 2026-04-23 22:33 | 10.54205 | -75.64586 | 9708 ft | 293 kts | 191° |
| 2026-04-23 22:34 | 10.52160 | -75.64684 | 10317 ft | 297 kts | 173° |
| 2026-04-23 22:34 | 10.50966 | -75.64438 | 10686 ft | 300 kts | 163° |
| 2026-04-23 22:34 | 10.49363 | -75.63776 | 11017 ft | 311 kts | 156° |
| 2026-04-23 22:34 | 10.47320 | -75.62837 | 11146 ft | 333 kts | 156° |
| 2026-04-23 22:35 | 10.45166 | -75.61835 | 11484 ft | 345 kts | 156° |
| 2026-04-23 22:35 | 10.42969 | -75.60811 | 12057 ft | 349 kts | 156° |
| 2026-04-23 22:35 | 10.40748 | -75.59783 | 12681 ft | 352 kts | 156° |
| 2026-04-23 22:35 | 10.38508 | -75.58746 | 13262 ft | 355 kts | 156° |
| 2026-04-23 22:36 | 10.36247 | -75.57701 | 13838 ft | 358 kts | 156° |
| 2026-04-23 22:36 | 10.33964 | -75.56649 | 14351 ft | 361 kts | 156° |
| 2026-04-23 22:36 | 10.31663 | -75.55593 | 14856 ft | 364 kts | 156° |
| 2026-04-23 22:36 | 10.29373 | -75.54542 | 15360 ft | 367 kts | 156° |
| 2026-04-23 22:37 | 10.27040 | -75.53469 | 15866 ft | 370 kts | 156° |
| 2026-04-23 22:37 | 10.24686 | -75.52389 | 16364 ft | 373 kts | 156° |
| 2026-04-23 22:37 | 10.22316 | -75.51301 | 16882 ft | 375 kts | 157° |
| 2026-04-23 22:37 | 10.19889 | -75.50323 | 17369 ft | 377 kts | 164° |
| 2026-04-23 22:38 | 10.17370 | -75.49562 | 17863 ft | 379 kts | 164° |
| 2026-04-23 22:38 | 10.14832 | -75.48803 | 18299 ft | 382 kts | 164° |
| 2026-04-23 22:38 | 10.12274 | -75.48041 | 18702 ft | 385 kts | 164° |
| 2026-04-23 22:38 | 10.09696 | -75.47271 | 19121 ft | 387 kts | 164° |
| 2026-04-23 22:39 | 10.07100 | -75.46492 | 19556 ft | 390 kts | 165° |
| 2026-04-23 22:39 | 10.04492 | -75.45711 | 19992 ft | 392 kts | 165° |
| 2026-04-23 22:39 | 10.01868 | -75.44926 | 20432 ft | 394 kts | 165° |
| 2026-04-23 22:39 | 9.99229 | -75.44136 | 20839 ft | 397 kts | 165° |
| 2026-04-23 22:40 | 9.96569 | -75.43340 | 21238 ft | 400 kts | 165° |
| 2026-04-23 22:40 | 9.93888 | -75.42538 | 21669 ft | 402 kts | 165° |
| 2026-04-23 22:40 | 9.88481 | -75.40921 | 22478 ft | 408 kts | 165° |
| 2026-04-23 22:41 | 9.85750 | -75.40101 | 22907 ft | 410 kts | 165° |
| 2026-04-23 22:41 | 9.83009 | -75.39274 | 23320 ft | 412 kts | 165° |
| 2026-04-23 22:41 | 9.80258 | -75.38447 | 23667 ft | 414 kts | 165° |
| 2026-04-23 22:41 | 9.77486 | -75.37619 | 23985 ft | 416 kts | 165° |
| 2026-04-23 22:42 | 9.74698 | -75.36787 | 24297 ft | 419 kts | 165° |
| 2026-04-23 22:42 | 9.71897 | -75.35953 | 24607 ft | 421 kts | 165° |
| 2026-04-23 22:42 | 9.69076 | -75.35113 | 24905 ft | 423 kts | 165° |
| 2026-04-23 22:42 | 9.66243 | -75.34270 | 25208 ft | 426 kts | 165° |
| 2026-04-23 22:43 | 9.63429 | -75.33431 | 25498 ft | 428 kts | 165° |
| 2026-04-23 22:43 | 9.60568 | -75.32574 | 25784 ft | 430 kts | 165° |
| 2026-04-23 22:43 | 9.57689 | -75.31710 | 26075 ft | 432 kts | 165° |
| 2026-04-23 22:43 | 9.54797 | -75.30840 | 26357 ft | 435 kts | 165° |
| 2026-04-23 22:44 | 9.51893 | -75.29969 | 26639 ft | 437 kts | 165° |
| 2026-04-23 22:44 | 9.48970 | -75.29096 | 26903 ft | 439 kts | 165° |
| 2026-04-23 22:44 | 9.46035 | -75.28224 | 27171 ft | 441 kts | 165° |
| 2026-04-23 22:44 | 9.43089 | -75.27349 | 27425 ft | 443 kts | 165° |
| 2026-04-23 22:45 | 9.40121 | -75.26464 | 27682 ft | 445 kts | 165° |
| 2026-04-23 22:45 | 9.37144 | -75.25572 | 27935 ft | 447 kts | 165° |
| 2026-04-23 22:45 | 9.34155 | -75.24677 | 28184 ft | 449 kts | 165° |
| 2026-04-23 22:45 | 9.31152 | -75.23780 | 28427 ft | 451 kts | 165° |
| 2026-04-23 22:46 | 9.28138 | -75.22879 | 28669 ft | 453 kts | 165° |
| 2026-04-23 22:46 | 9.25109 | -75.21975 | 28903 ft | 455 kts | 165° |
| 2026-04-23 22:46 | 9.22066 | -75.21067 | 29130 ft | 457 kts | 165° |
| 2026-04-23 22:46 | 9.19045 | -75.20168 | 29348 ft | 459 kts | 165° |
| 2026-04-23 22:47 | 9.15967 | -75.19254 | 29568 ft | 460 kts | 165° |
| 2026-04-23 22:47 | 9.12903 | -75.18341 | 29926 ft | 456 kts | 164° |
| 2026-04-23 22:47 | 9.09866 | -75.17434 | 30297 ft | 453 kts | 164° |
| 2026-04-23 22:47 | 9.06846 | -75.16532 | 30532 ft | 452 kts | 164° |
| 2026-04-23 22:48 | 9.03828 | -75.15632 | 30761 ft | 452 kts | 164° |
| 2026-04-23 22:48 | 9.00814 | -75.14730 | 31033 ft | 451 kts | 164° |
| 2026-04-23 22:48 | 8.97810 | -75.13832 | 31292 ft | 450 kts | 164° |
| 2026-04-23 22:48 | 8.94806 | -75.12939 | 31536 ft | 449 kts | 164° |
| 2026-04-23 22:49 | 8.91809 | -75.12052 | 31771 ft | 449 kts | 164° |
| 2026-04-23 22:49 | 8.88808 | -75.11163 | 32019 ft | 448 kts | 164° |
| 2026-04-23 22:49 | 8.85815 | -75.10273 | 32263 ft | 448 kts | 164° |
| 2026-04-23 22:49 | 8.82825 | -75.09385 | 32497 ft | 448 kts | 164° |
| 2026-04-23 22:50 | 8.79834 | -75.08497 | 32740 ft | 448 kts | 163° |
| 2026-04-23 22:50 | 8.73883 | -75.06716 | 32856 ft | 443 kts | 163° |
| 2026-04-23 22:51 | 8.68006 | -75.04963 | 32847 ft | 443 kts | 163° |
| 2026-04-23 22:51 | 8.62089 | -75.03210 | 32850 ft | 442 kts | 164° |
| 2026-04-23 22:52 | 8.56184 | -75.01461 | 32851 ft | 442 kts | 164° |
| 2026-04-23 22:52 | 8.50283 | -74.99707 | 32851 ft | 442 kts | 164° |
| 2026-04-23 22:53 | 8.44375 | -74.97948 | 32850 ft | 442 kts | 163° |
| 2026-04-23 22:53 | 8.38486 | -74.96198 | 32852 ft | 438 kts | 163° |
| 2026-04-23 22:54 | 8.32644 | -74.94467 | 32852 ft | 437 kts | 163° |
| 2026-04-23 22:54 | 8.26847 | -74.92750 | 32850 ft | 437 kts | 163° |
| 2026-04-23 22:55 | 8.21016 | -74.91010 | 32853 ft | 437 kts | 163° |
| 2026-04-23 22:55 | 8.15197 | -74.89232 | 32853 ft | 437 kts | 163° |
| 2026-04-23 22:56 | 8.09380 | -74.87447 | 32850 ft | 437 kts | 163° |
| 2026-04-23 22:56 | 8.03561 | -74.85673 | 32850 ft | 437 kts | 163° |
| 2026-04-23 22:57 | 7.97729 | -74.83902 | 32854 ft | 438 kts | 163° |
| 2026-04-23 22:57 | 7.91890 | -74.82131 | 32853 ft | 438 kts | 163° |
| 2026-04-23 22:58 | 7.86054 | -74.80358 | 32857 ft | 438 kts | 163° |
| 2026-04-23 22:58 | 7.80216 | -74.78581 | 32861 ft | 438 kts | 163° |
| 2026-04-23 22:59 | 7.74410 | -74.76820 | 32872 ft | 438 kts | 163° |
| 2026-04-23 22:59 | 7.68527 | -74.75251 | 32870 ft | 438 kts | 172° |
| 2026-04-23 23:00 | 7.62427 | -74.75212 | 32874 ft | 439 kts | 182° |
| 2026-04-23 23:00 | 7.56315 | -74.75524 | 32881 ft | 440 kts | 182° |
| 2026-04-23 23:01 | 7.50201 | -74.75826 | 32879 ft | 440 kts | 182° |
| 2026-04-23 23:01 | 7.44074 | -74.76118 | 32889 ft | 440 kts | 182° |
| 2026-04-23 23:02 | 7.37960 | -74.76408 | 32889 ft | 440 kts | 182° |
| 2026-04-23 23:02 | 7.31837 | -74.76697 | 32893 ft | 439 kts | 182° |
| 2026-04-23 23:03 | 7.25728 | -74.77002 | 33225 ft | 439 kts | 182° |
| 2026-04-23 23:03 | 7.22682 | -74.77153 | 33534 ft | 438 kts | 182° |
| 2026-04-23 23:03 | 7.19641 | -74.77301 | 33837 ft | 436 kts | 182° |
| 2026-04-23 23:03 | 7.16613 | -74.77445 | 34092 ft | 435 kts | 182° |
| 2026-04-23 23:04 | 7.13593 | -74.77589 | 34327 ft | 435 kts | 182° |
| 2026-04-23 23:04 | 7.10612 | -74.77732 | 34547 ft | 434 kts | 182° |
| 2026-04-23 23:04 | 7.07600 | -74.77878 | 34752 ft | 433 kts | 182° |
| 2026-04-23 23:04 | 7.04587 | -74.78026 | 34871 ft | 433 kts | 182° |
| 2026-04-23 23:05 | 7.01593 | -74.78170 | 34919 ft | 429 kts | 182° |
| 2026-04-23 23:05 | 6.95645 | -74.78458 | 34937 ft | 427 kts | 182° |
| 2026-04-23 23:06 | 6.89709 | -74.78750 | 34936 ft | 427 kts | 182° |
| 2026-04-23 23:06 | 6.83780 | -74.79030 | 34953 ft | 426 kts | 182° |
| 2026-04-23 23:07 | 6.77852 | -74.79314 | 34955 ft | 426 kts | 182° |
| 2026-04-23 23:07 | 6.71928 | -74.79602 | 34961 ft | 426 kts | 182° |
| 2026-04-23 23:08 | 6.66995 | -74.79844 | 34957 ft | 426 kts | 182° |
| 2026-04-23 23:08 | 6.61064 | -74.80128 | 34955 ft | 426 kts | 182° |
| 2026-04-23 23:09 | 6.55132 | -74.80414 | 34948 ft | 427 kts | 182° |
| 2026-04-23 23:09 | 6.49184 | -74.80697 | 34947 ft | 428 kts | 182° |
| 2026-04-23 23:10 | 6.43221 | -74.80981 | 34951 ft | 429 kts | 182° |
| 2026-04-23 23:10 | 6.37304 | -74.81265 | 34955 ft | 429 kts | 182° |
| 2026-04-23 23:11 | 6.31340 | -74.81549 | 34957 ft | 429 kts | 182° |
| 2026-04-23 23:11 | 6.25362 | -74.81834 | 34958 ft | 429 kts | 182° |
| 2026-04-23 23:12 | 6.19387 | -74.82126 | 34961 ft | 430 kts | 182° |
| 2026-04-23 23:12 | 6.13410 | -74.82414 | 34955 ft | 430 kts | 182° |
| 2026-04-23 23:13 | 6.07426 | -74.82706 | 34954 ft | 430 kts | 182° |
| 2026-04-23 23:13 | 6.01449 | -74.82994 | 34952 ft | 430 kts | 182° |
| 2026-04-23 23:14 | 5.95474 | -74.83439 | 34953 ft | 430 kts | 185° |
| 2026-04-23 23:14 | 5.89530 | -74.84166 | 34955 ft | 431 kts | 187° |
| 2026-04-23 23:15 | 5.83623 | -74.84929 | 34952 ft | 431 kts | 186° |
| 2026-04-23 23:15 | 5.77665 | -74.85629 | 34950 ft | 431 kts | 185° |
| 2026-04-23 23:16 | 5.71697 | -74.86295 | 34951 ft | 431 kts | 185° |
| 2026-04-23 23:16 | 5.65723 | -74.86966 | 34953 ft | 432 kts | 185° |
| 2026-04-23 23:17 | 5.59753 | -74.87646 | 34959 ft | 432 kts | 185° |
| 2026-04-23 23:17 | 5.53773 | -74.88328 | 34962 ft | 432 kts | 185° |
| 2026-04-23 23:18 | 5.47790 | -74.89011 | 34940 ft | 432 kts | 186° |
| 2026-04-23 23:18 | 5.41815 | -74.89698 | 34927 ft | 432 kts | 186° |
| 2026-04-23 23:19 | 5.35842 | -74.90374 | 34897 ft | 432 kts | 185° |
| 2026-04-23 23:19 | 5.29897 | -74.91048 | 34874 ft | 432 kts | 185° |
| 2026-04-23 23:20 | 5.23918 | -74.91725 | 34878 ft | 432 kts | 185° |
| 2026-04-23 23:20 | 5.17928 | -74.91989 | 34881 ft | 431 kts | 176° |
| 2026-04-23 23:21 | 5.11929 | -74.91650 | 34881 ft | 432 kts | 176° |
| 2026-04-23 23:21 | 5.05925 | -74.91316 | 34915 ft | 432 kts | 176° |
| 2026-04-23 23:22 | 4.99906 | -74.90981 | 34956 ft | 433 kts | 176° |
| 2026-04-23 23:22 | 4.93928 | -74.90648 | 34998 ft | 433 kts | 176° |
| 2026-04-23 23:23 | 4.87907 | -74.90320 | 35056 ft | 433 kts | 176° |
| 2026-04-23 23:23 | 4.81873 | -74.89990 | 35066 ft | 434 kts | 176° |
| 2026-04-23 23:24 | 4.75845 | -74.89654 | 35063 ft | 434 kts | 176° |
| 2026-04-23 23:24 | 4.69819 | -74.89328 | 35057 ft | 434 kts | 176° |
| 2026-04-23 23:25 | 4.63783 | -74.89009 | 35061 ft | 434 kts | 176° |
| 2026-04-23 23:25 | 4.57746 | -74.88683 | 35015 ft | 434 kts | 176° |
| 2026-04-23 23:26 | 4.51710 | -74.88348 | 34943 ft | 434 kts | 176° |
| 2026-04-23 23:26 | 4.45672 | -74.88016 | 34893 ft | 435 kts | 176° |
| 2026-04-23 23:27 | 4.39634 | -74.87686 | 34833 ft | 435 kts | 176° |
| 2026-04-23 23:27 | 4.33641 | -74.87347 | 34795 ft | 435 kts | 175° |
| 2026-04-23 23:28 | 4.27593 | -74.87008 | 34792 ft | 435 kts | 176° |
| 2026-04-23 23:28 | 4.21539 | -74.86684 | 34987 ft | 436 kts | 176° |
| 2026-04-23 23:29 | 4.15505 | -74.87196 | 34990 ft | 437 kts | 188° |
| 2026-04-23 23:29 | 4.09500 | -74.88249 | 34979 ft | 438 kts | 188° |
| 2026-04-23 23:30 | 4.03500 | -74.89293 | 34976 ft | 438 kts | 188° |
| 2026-04-23 23:30 | 3.97471 | -74.90326 | 34971 ft | 439 kts | 188° |
| 2026-04-23 23:31 | 3.91438 | -74.91376 | 34976 ft | 441 kts | 188° |
| 2026-04-23 23:31 | 3.85387 | -74.92434 | 34977 ft | 442 kts | 188° |
| 2026-04-23 23:32 | 3.79316 | -74.93489 | 34980 ft | 442 kts | 188° |
| 2026-04-23 23:32 | 3.73295 | -74.94533 | 34983 ft | 442 kts | 188° |
| 2026-04-23 23:33 | 3.67242 | -74.95590 | 34985 ft | 442 kts | 188° |
| 2026-04-23 23:33 | 3.61164 | -74.96645 | 34978 ft | 443 kts | 188° |
| 2026-04-23 23:34 | 3.55081 | -74.97700 | 34977 ft | 444 kts | 188° |
| 2026-04-23 23:34 | 3.48986 | -74.98751 | 34977 ft | 444 kts | 188° |
| 2026-04-23 23:35 | 3.42938 | -74.99798 | 34974 ft | 444 kts | 188° |
| 2026-04-23 23:35 | 3.36839 | -75.00859 | 34978 ft | 444 kts | 188° |
| 2026-04-23 23:36 | 3.30740 | -75.01921 | 34979 ft | 445 kts | 188° |
| 2026-04-23 23:36 | 3.24640 | -75.02980 | 34980 ft | 445 kts | 188° |
| 2026-04-23 23:37 | 3.18536 | -75.04041 | 34975 ft | 445 kts | 188° |
| 2026-04-23 23:37 | 3.12442 | -75.05101 | 34956 ft | 445 kts | 188° |
| 2026-04-23 23:38 | 3.06340 | -75.06161 | 34955 ft | 445 kts | 188° |
| 2026-04-23 23:38 | 3.00236 | -75.07218 | 34920 ft | 445 kts | 188° |
| 2026-04-23 23:39 | 2.94176 | -75.08263 | 34919 ft | 446 kts | 188° |
| 2026-04-23 23:39 | 2.88062 | -75.09318 | 34921 ft | 446 kts | 188° |
| 2026-04-23 23:40 | 2.81954 | -75.10378 | 34928 ft | 446 kts | 188° |
| 2026-04-23 23:40 | 2.75834 | -75.11444 | 34983 ft | 446 kts | 188° |
| 2026-04-23 23:41 | 2.69719 | -75.12506 | 34988 ft | 446 kts | 188° |
| 2026-04-23 23:41 | 2.63598 | -75.13562 | 34990 ft | 446 kts | 188° |
| 2026-04-23 23:42 | 2.57486 | -75.14621 | 34990 ft | 446 kts | 188° |
| 2026-04-23 23:42 | 2.51360 | -75.15677 | 34992 ft | 446 kts | 188° |
| 2026-04-23 23:43 | 2.45273 | -75.16734 | 34983 ft | 447 kts | 188° |
| 2026-04-23 23:43 | 2.39141 | -75.17800 | 34982 ft | 447 kts | 188° |
| 2026-04-23 23:44 | 2.33007 | -75.18863 | 34975 ft | 447 kts | 188° |
| 2026-04-23 23:44 | 2.26876 | -75.19923 | 34979 ft | 447 kts | 188° |
| 2026-04-23 23:45 | 2.20748 | -75.20990 | 34953 ft | 447 kts | 188° |
| 2026-04-23 23:45 | 2.14659 | -75.22047 | 34974 ft | 446 kts | 188° |
| 2026-04-23 23:46 | 2.08534 | -75.23100 | 34957 ft | 447 kts | 188° |
| 2026-04-23 23:46 | 2.02391 | -75.24164 | 34942 ft | 448 kts | 188° |
| 2026-04-23 23:47 | 1.96255 | -75.25219 | 34950 ft | 448 kts | 188° |
| 2026-04-23 23:47 | 1.90115 | -75.26287 | 34937 ft | 449 kts | 188° |
| 2026-04-23 23:48 | 1.83975 | -75.27345 | 34949 ft | 447 kts | 188° |
| 2026-04-23 23:48 | 1.77837 | -75.28409 | 34940 ft | 448 kts | 188° |
| 2026-04-23 23:49 | 1.68656 | -75.30001 | 34896 ft | 444 kts | 188° |
| 2026-04-23 23:49 | 1.62560 | -75.31054 | 34879 ft | 444 kts | 188° |
| 2026-04-23 23:50 | 1.56453 | -75.32119 | 34867 ft | 445 kts | 188° |
| 2026-04-23 23:50 | 1.50381 | -75.33167 | 34872 ft | 446 kts | 188° |
| 2026-04-23 23:51 | 1.44247 | -75.34221 | 34870 ft | 447 kts | 187° |
| 2026-04-23 23:51 | 1.38108 | -75.35289 | 34887 ft | 447 kts | 187° |
| 2026-04-23 23:52 | 1.31970 | -75.36368 | 34881 ft | 451 kts | 187° |
| 2026-04-23 23:52 | 1.25802 | -75.37415 | 34898 ft | 448 kts | 187° |
| 2026-04-23 23:53 | 1.19639 | -75.38477 | 34898 ft | 450 kts | 187° |
| 2026-04-23 23:53 | 1.13466 | -75.39539 | 34909 ft | 449 kts | 187° |
| 2026-04-23 23:54 | 1.07355 | -75.40601 | 34918 ft | 449 kts | 187° |
| 2026-04-23 23:54 | 1.01191 | -75.41663 | 34915 ft | 450 kts | 187° |
| 2026-04-23 23:55 | 0.95036 | -75.42728 | 34907 ft | 450 kts | 187° |
| 2026-04-23 23:55 | 0.88854 | -75.43796 | 34901 ft | 452 kts | 187° |
| 2026-04-23 23:56 | 0.82660 | -75.44867 | 34917 ft | 450 kts | 187° |
| 2026-04-23 23:56 | 0.76490 | -75.45936 | 34914 ft | 449 kts | 187° |
| 2026-04-23 23:57 | 0.71370 | -75.46820 | 34919 ft | 449 kts | 186° |
| 2026-04-23 23:57 | 0.65221 | -75.47871 | 34920 ft | 450 kts | 186° |
| 2026-04-23 23:58 | 0.59072 | -75.48924 | 34939 ft | 449 kts | 186° |
| 2026-04-23 23:58 | 0.52911 | -75.50002 | 34896 ft | 449 kts | 187° |
| 2026-04-23 23:59 | 0.46762 | -75.51087 | 34893 ft | 448 kts | 186° |
| 2026-04-23 23:59 | 0.40618 | -75.52155 | 34903 ft | 447 kts | 187° |
| 2026-04-24 00:00 | 0.34508 | -75.53200 | 34884 ft | 444 kts | 186° |
| 2026-04-24 00:00 | 0.28413 | -75.54247 | 34882 ft | 444 kts | 186° |
| 2026-04-24 00:01 | 0.22317 | -75.55306 | 34883 ft | 446 kts | 186° |
| 2026-04-24 00:01 | 0.16207 | -75.56356 | 34884 ft | 446 kts | 186° |
| 2026-04-24 00:02 | 0.10068 | -75.57409 | 34883 ft | 449 kts | 186° |
| 2026-04-24 00:02 | 0.03911 | -75.58479 | 34879 ft | 448 kts | 186° |
| 2026-04-24 00:03 | -0.02227 | -75.59528 | 34881 ft | 447 kts | 186° |
| 2026-04-24 00:03 | -0.08369 | -75.60569 | 34886 ft | 448 kts | 186° |
| 2026-04-24 00:04 | -0.14478 | -75.61613 | 34894 ft | 448 kts | 186° |
| 2026-04-24 00:04 | -0.20624 | -75.62664 | 34898 ft | 448 kts | 186° |
| 2026-04-24 00:05 | -0.26767 | -75.63713 | 34900 ft | 448 kts | 186° |
| 2026-04-24 00:05 | -0.32921 | -75.64766 | 34903 ft | 448 kts | 186° |
| 2026-04-24 00:06 | -0.39068 | -75.65818 | 34905 ft | 448 kts | 186° |
| 2026-04-24 00:06 | -0.45218 | -75.66863 | 34906 ft | 448 kts | 186° |
| 2026-04-24 00:07 | -0.51354 | -75.67915 | 34900 ft | 447 kts | 186° |
| 2026-04-24 00:07 | -0.57473 | -75.68972 | 34900 ft | 444 kts | 186° |
| 2026-04-24 00:08 | -0.63580 | -75.70016 | 34891 ft | 447 kts | 186° |
| 2026-04-24 00:08 | -0.69673 | -75.71047 | 34896 ft | 447 kts | 186° |
| 2026-04-24 00:09 | -0.75808 | -75.72099 | 34897 ft | 447 kts | 186° |
| 2026-04-24 00:09 | -0.81939 | -75.73150 | 34899 ft | 447 kts | 186° |
| 2026-04-24 00:10 | -0.88074 | -75.74196 | 34902 ft | 448 kts | 186° |
| 2026-04-24 00:10 | -0.94223 | -75.75245 | 34902 ft | 447 kts | 186° |
| 2026-04-24 00:11 | -1.00362 | -75.76298 | 34905 ft | 447 kts | 186° |
| 2026-04-24 00:11 | -1.06495 | -75.77345 | 34901 ft | 447 kts | 186° |
| 2026-04-24 00:12 | -1.12637 | -75.78389 | 34898 ft | 448 kts | 187° |
| 2026-04-24 00:12 | -1.18784 | -75.79430 | 34911 ft | 448 kts | 186° |
| 2026-04-24 00:13 | -1.24900 | -75.80476 | 34917 ft | 448 kts | 186° |
| 2026-04-24 00:13 | -1.31047 | -75.81529 | 34916 ft | 448 kts | 186° |
| 2026-04-24 00:14 | -1.37191 | -75.82585 | 34921 ft | 448 kts | 186° |
| 2026-04-24 00:14 | -1.43338 | -75.83634 | 34924 ft | 448 kts | 186° |
| 2026-04-24 00:15 | -1.49486 | -75.84682 | 34918 ft | 448 kts | 186° |
| 2026-04-24 00:15 | -1.55631 | -75.85735 | 34916 ft | 448 kts | 186° |
| 2026-04-24 00:16 | -1.61775 | -75.86788 | 34913 ft | 448 kts | 186° |
| 2026-04-24 00:16 | -1.67877 | -75.87836 | 34917 ft | 447 kts | 186° |
| 2026-04-24 00:17 | -1.74021 | -75.88881 | 34923 ft | 447 kts | 186° |
| 2026-04-24 00:17 | -1.80165 | -75.89932 | 34925 ft | 448 kts | 186° |
| 2026-04-24 00:18 | -1.86307 | -75.90988 | 34924 ft | 448 kts | 186° |
| 2026-04-24 00:18 | -1.92448 | -75.92036 | 34921 ft | 448 kts | 186° |
| 2026-04-24 00:19 | -1.98598 | -75.93089 | 34926 ft | 448 kts | 186° |
| 2026-04-24 00:19 | -2.04760 | -75.93926 | 34923 ft | 446 kts | 181° |
| 2026-04-24 00:20 | -2.10934 | -75.94409 | 34916 ft | 444 kts | 180° |
| 2026-04-24 00:20 | -2.17140 | -75.94853 | 34942 ft | 448 kts | 181° |
| 2026-04-24 00:21 | -2.23324 | -75.95378 | 34979 ft | 447 kts | 181° |
| 2026-04-24 00:21 | -2.29525 | -75.95948 | 34959 ft | 449 kts | 181° |
| 2026-04-24 00:22 | -2.35747 | -75.96525 | 34959 ft | 449 kts | 181° |
| 2026-04-24 00:22 | -2.41967 | -75.97084 | 34958 ft | 448 kts | 181° |
| 2026-04-24 00:23 | -2.48171 | -75.97630 | 34955 ft | 447 kts | 181° |
| 2026-04-24 00:23 | -2.54376 | -75.98169 | 34949 ft | 447 kts | 181° |
| 2026-04-24 00:24 | -2.60569 | -75.98719 | 34941 ft | 447 kts | 181° |
| 2026-04-24 00:24 | -2.66773 | -75.99277 | 34930 ft | 448 kts | 181° |
| 2026-04-24 00:25 | -2.72982 | -75.99853 | 34924 ft | 448 kts | 180° |
| 2026-04-24 00:25 | -2.79192 | -76.00398 | 34934 ft | 448 kts | 181° |
| 2026-04-24 00:26 | -2.85374 | -76.00932 | 34936 ft | 449 kts | 181° |
| 2026-04-24 00:26 | -2.91616 | -76.01486 | 34935 ft | 450 kts | 181° |
| 2026-04-24 00:27 | -2.97850 | -76.02052 | 34945 ft | 449 kts | 181° |
| 2026-04-24 00:27 | -3.04073 | -76.02620 | 34939 ft | 449 kts | 181° |
| 2026-04-24 00:28 | -3.10307 | -76.03175 | 34942 ft | 449 kts | 181° |
| 2026-04-24 00:28 | -3.16517 | -76.03725 | 34950 ft | 448 kts | 181° |
| 2026-04-24 00:29 | -3.22735 | -76.04285 | 34936 ft | 448 kts | 181° |
| 2026-04-24 00:29 | -3.28944 | -76.04840 | 34926 ft | 447 kts | 181° |
| 2026-04-24 00:30 | -3.35150 | -76.05392 | 34922 ft | 448 kts | 181° |
| 2026-04-24 00:30 | -3.41304 | -76.05936 | 34898 ft | 445 kts | 181° |
| 2026-04-24 00:31 | -3.47442 | -76.06473 | 34908 ft | 443 kts | 181° |
| 2026-04-24 00:31 | -3.53584 | -76.07053 | 34896 ft | 443 kts | 181° |
| 2026-04-24 00:32 | -3.59751 | -76.07609 | 34897 ft | 446 kts | 181° |
| 2026-04-24 00:32 | -3.65949 | -76.08152 | 34901 ft | 448 kts | 181° |
| 2026-04-24 00:33 | -3.72169 | -76.08701 | 34909 ft | 448 kts | 180° |
| 2026-04-24 00:33 | -3.78403 | -76.09253 | 34911 ft | 450 kts | 181° |
| 2026-04-24 00:34 | -3.84629 | -76.09821 | 34916 ft | 449 kts | 181° |
| 2026-04-24 00:34 | -3.90862 | -76.10389 | 34911 ft | 449 kts | 181° |
| 2026-04-24 00:35 | -3.97077 | -76.10949 | 34914 ft | 449 kts | 182° |
| 2026-04-24 00:35 | -4.03327 | -76.11524 | 34932 ft | 453 kts | 181° |
| 2026-04-24 00:36 | -4.09603 | -76.12087 | 34952 ft | 453 kts | 181° |
| 2026-04-24 00:36 | -4.15845 | -76.12638 | 34934 ft | 448 kts | 181° |
| 2026-04-24 00:37 | -4.22017 | -76.13183 | 34934 ft | 448 kts | 181° |
| 2026-04-24 00:37 | -4.28235 | -76.13727 | 34932 ft | 447 kts | 181° |
| 2026-04-24 00:38 | -4.34446 | -76.14273 | 34917 ft | 449 kts | 181° |
| 2026-04-24 00:38 | -4.40670 | -76.14840 | 34907 ft | 449 kts | 181° |
| 2026-04-24 00:39 | -4.46895 | -76.15405 | 34899 ft | 448 kts | 181° |
| 2026-04-24 00:39 | -4.53110 | -76.15969 | 34898 ft | 449 kts | 181° |
| 2026-04-24 00:40 | -4.59345 | -76.16524 | 34900 ft | 450 kts | 181° |
| 2026-04-24 00:40 | -4.65544 | -76.17062 | 34906 ft | 450 kts | 181° |
| 2026-04-24 00:41 | -4.71793 | -76.17630 | 34913 ft | 450 kts | 182° |
| 2026-04-24 00:41 | -4.78027 | -76.18196 | 34923 ft | 449 kts | 181° |
| 2026-04-24 00:42 | -4.84269 | -76.18749 | 34922 ft | 449 kts | 181° |
| 2026-04-24 00:42 | -4.90492 | -76.19304 | 34922 ft | 449 kts | 181° |
| 2026-04-24 00:43 | -4.95670 | -76.19770 | 34909 ft | 449 kts | 181° |
| 2026-04-24 00:43 | -5.02908 | -76.20415 | 34919 ft | 451 kts | 182° |
| 2026-04-24 00:44 | -5.09163 | -76.20983 | 34919 ft | 450 kts | 182° |
| 2026-04-24 00:44 | -5.14390 | -76.21451 | 34937 ft | 450 kts | 181° |
| 2026-04-24 00:45 | -5.20642 | -76.22009 | 34934 ft | 451 kts | 181° |
| 2026-04-24 00:45 | -5.24781 | -76.22390 | 35118 ft | 452 kts | 182° |
| 2026-04-24 00:45 | -5.26856 | -76.22577 | 35264 ft | 450 kts | 181° |
| 2026-04-24 00:46 | -5.29976 | -76.22855 | 35462 ft | 450 kts | 181° |
| 2026-04-24 00:46 | -5.33093 | -76.23129 | 35682 ft | 449 kts | 181° |
| 2026-04-24 00:46 | -5.36213 | -76.23409 | 35859 ft | 450 kts | 182° |
| 2026-04-24 00:46 | -5.39329 | -76.23695 | 35908 ft | 449 kts | 182° |
| 2026-04-24 00:47 | -5.45553 | -76.24268 | 35908 ft | 449 kts | 181° |
| 2026-04-24 00:47 | -5.51780 | -76.24829 | 35908 ft | 449 kts | 181° |
| 2026-04-24 00:48 | -5.57959 | -76.25387 | 35901 ft | 449 kts | 181° |
| 2026-04-24 00:48 | -5.64196 | -76.25946 | 35903 ft | 449 kts | 181° |
| 2026-04-24 00:49 | -5.70420 | -76.26508 | 35908 ft | 449 kts | 182° |
| 2026-04-24 00:49 | -5.76648 | -76.27069 | 35911 ft | 449 kts | 181° |
| 2026-04-24 00:50 | -5.82870 | -76.27632 | 35900 ft | 450 kts | 181° |
| 2026-04-24 00:50 | -5.89101 | -76.28198 | 35913 ft | 449 kts | 182° |
| 2026-04-24 00:51 | -5.95321 | -76.28753 | 35905 ft | 449 kts | 181° |
| 2026-04-24 00:51 | -6.01521 | -76.29310 | 35900 ft | 451 kts | 182° |
| 2026-04-24 00:52 | -6.07769 | -76.29878 | 35909 ft | 450 kts | 182° |
| 2026-04-24 00:52 | -6.14006 | -76.30439 | 35914 ft | 451 kts | 181° |
| 2026-04-24 00:53 | -6.20266 | -76.31005 | 35921 ft | 451 kts | 181° |
| 2026-04-24 00:53 | -6.26509 | -76.31577 | 35914 ft | 451 kts | 181° |
| 2026-04-24 00:54 | -6.32774 | -76.32143 | 35917 ft | 451 kts | 182° |
| 2026-04-24 00:54 | -6.39015 | -76.32704 | 35925 ft | 450 kts | 182° |
| 2026-04-24 00:55 | -6.45274 | -76.33268 | 35927 ft | 452 kts | 181° |
| 2026-04-24 00:55 | -6.51493 | -76.33834 | 35929 ft | 452 kts | 181° |
| 2026-04-24 00:56 | -6.57752 | -76.34398 | 35955 ft | 450 kts | 181° |
| 2026-04-24 00:56 | -6.64019 | -76.34965 | 35927 ft | 453 kts | 182° |
| 2026-04-24 00:57 | -6.70333 | -76.35570 | 35944 ft | 457 kts | 183° |
| 2026-04-24 00:58 | -6.79767 | -76.36625 | 35959 ft | 453 kts | 184° |
| 2026-04-24 00:58 | -6.86035 | -76.37317 | 35962 ft | 452 kts | 182° |
| 2026-04-24 00:59 | -6.92301 | -76.37992 | 35951 ft | 451 kts | 183° |
| 2026-04-24 00:59 | -6.98524 | -76.38687 | 35953 ft | 449 kts | 184° |
| 2026-04-24 01:00 | -7.04746 | -76.39376 | 35948 ft | 448 kts | 183° |
| 2026-04-24 01:00 | -7.10917 | -76.40015 | 35947 ft | 449 kts | 183° |
| 2026-04-24 01:01 | -7.17134 | -76.40675 | 35947 ft | 449 kts | 183° |
| 2026-04-24 01:01 | -7.23340 | -76.41355 | 35953 ft | 448 kts | 183° |
| 2026-04-24 01:02 | -7.29554 | -76.42034 | 35964 ft | 449 kts | 183° |
| 2026-04-24 01:02 | -7.35775 | -76.42705 | 35958 ft | 449 kts | 183° |
| 2026-04-24 01:03 | -7.41998 | -76.43380 | 35971 ft | 449 kts | 183° |
| 2026-04-24 01:03 | -7.48174 | -76.44050 | 35975 ft | 449 kts | 183° |
| 2026-04-24 01:04 | -7.54398 | -76.44726 | 35985 ft | 449 kts | 183° |
| 2026-04-24 01:04 | -7.60622 | -76.45400 | 35979 ft | 449 kts | 183° |
| 2026-04-24 01:05 | -7.66834 | -76.46070 | 35976 ft | 449 kts | 183° |
| 2026-04-24 01:05 | -7.73050 | -76.46744 | 35997 ft | 449 kts | 183° |
| 2026-04-24 01:06 | -7.79280 | -76.47429 | 35992 ft | 450 kts | 183° |
| 2026-04-24 01:06 | -7.85506 | -76.48105 | 36018 ft | 450 kts | 183° |
| 2026-04-24 01:07 | -7.91690 | -76.48772 | 36021 ft | 450 kts | 183° |
| 2026-04-24 01:07 | -7.97921 | -76.49447 | 36035 ft | 450 kts | 183° |
| 2026-04-24 01:08 | -8.04139 | -76.50127 | 36031 ft | 449 kts | 183° |
| 2026-04-24 01:08 | -8.10341 | -76.50791 | 36048 ft | 449 kts | 183° |
| 2026-04-24 01:09 | -8.16548 | -76.51450 | 36062 ft | 447 kts | 183° |
| 2026-04-24 01:09 | -8.22728 | -76.52138 | 36045 ft | 447 kts | 184° |
| 2026-04-24 01:10 | -8.28929 | -76.52831 | 36062 ft | 449 kts | 184° |
| 2026-04-24 01:10 | -8.35163 | -76.53498 | 36071 ft | 450 kts | 183° |
| 2026-04-24 01:11 | -8.41347 | -76.54166 | 36100 ft | 449 kts | 184° |
| 2026-04-24 01:11 | -8.47565 | -76.54843 | 36102 ft | 450 kts | 184° |
| 2026-04-24 01:12 | -8.53802 | -76.55523 | 36104 ft | 451 kts | 183° |
| 2026-04-24 01:12 | -8.60049 | -76.56201 | 36139 ft | 452 kts | 183° |
| 2026-04-24 01:13 | -8.66311 | -76.56892 | 36146 ft | 452 kts | 183° |
| 2026-04-24 01:13 | -8.72562 | -76.57579 | 36183 ft | 451 kts | 183° |
| 2026-04-24 01:14 | -8.78796 | -76.58265 | 36158 ft | 451 kts | 183° |
| 2026-04-24 01:14 | -8.85058 | -76.58934 | 36182 ft | 452 kts | 183° |
| 2026-04-24 01:15 | -8.91305 | -76.59612 | 36185 ft | 451 kts | 183° |
| 2026-04-24 01:15 | -8.97544 | -76.60289 | 36186 ft | 450 kts | 184° |
| 2026-04-24 01:16 | -9.03742 | -76.60966 | 36209 ft | 451 kts | 183° |
| 2026-04-24 01:16 | -9.09985 | -76.61656 | 36211 ft | 451 kts | 183° |
| 2026-04-24 01:17 | -9.16212 | -76.62335 | 36230 ft | 450 kts | 183° |
| 2026-04-24 01:17 | -9.22440 | -76.63008 | 36225 ft | 451 kts | 184° |
| 2026-04-24 01:18 | -9.28672 | -76.63691 | 36259 ft | 450 kts | 184° |
| 2026-04-24 01:18 | -9.34806 | -76.64991 | 36276 ft | 455 kts | 199° |
| 2026-04-24 01:19 | -9.40459 | -76.67932 | 36273 ft | 457 kts | 207° |
| 2026-04-24 01:19 | -9.46037 | -76.71030 | 36273 ft | 457 kts | 207° |
| 2026-04-24 01:20 | -9.51626 | -76.74124 | 36274 ft | 458 kts | 207° |
| 2026-04-24 01:20 | -9.57179 | -76.77212 | 36270 ft | 458 kts | 207° |
| 2026-04-24 01:21 | -9.62761 | -76.80319 | 36258 ft | 459 kts | 207° |
| 2026-04-24 01:21 | -9.68358 | -76.83425 | 36255 ft | 458 kts | 207° |
| 2026-04-24 01:22 | -9.73959 | -76.86534 | 36276 ft | 458 kts | 207° |
| 2026-04-24 01:22 | -9.79556 | -76.89646 | 36282 ft | 460 kts | 207° |
| 2026-04-24 01:23 | -9.85168 | -76.92776 | 36268 ft | 461 kts | 207° |
| 2026-04-24 01:23 | -9.90795 | -76.95907 | 36277 ft | 461 kts | 207° |
| 2026-04-24 01:24 | -9.96424 | -76.99037 | 36281 ft | 461 kts | 206° |
| 2026-04-24 01:24 | -10.02052 | -77.02158 | 36270 ft | 461 kts | 207° |
| 2026-04-24 01:25 | -10.07682 | -77.05302 | 36269 ft | 463 kts | 207° |
| 2026-04-24 01:25 | -10.13332 | -77.08465 | 36196 ft | 464 kts | 207° |
| 2026-04-24 01:25 | -10.16175 | -77.10052 | 35417 ft | 469 kts | 207° |
| 2026-04-24 01:26 | -10.19027 | -77.11644 | 34871 ft | 466 kts | 207° |
| 2026-04-24 01:26 | -10.21830 | -77.13209 | 34308 ft | 465 kts | 207° |
| 2026-04-24 01:26 | -10.24699 | -77.14814 | 33687 ft | 463 kts | 207° |
| 2026-04-24 01:26 | -10.27472 | -77.16368 | 33156 ft | 460 kts | 207° |
| 2026-04-24 01:27 | -10.30260 | -77.17927 | 32607 ft | 456 kts | 207° |
| 2026-04-24 01:27 | -10.33030 | -77.19464 | 32036 ft | 451 kts | 207° |
| 2026-04-24 01:27 | -10.35772 | -77.20992 | 31515 ft | 448 kts | 207° |
| 2026-04-24 01:27 | -10.38502 | -77.22516 | 30990 ft | 446 kts | 207° |
| 2026-04-24 01:28 | -10.41212 | -77.24033 | 30435 ft | 444 kts | 207° |
| 2026-04-24 01:28 | -10.43914 | -77.25544 | 29880 ft | 442 kts | 207° |
| 2026-04-24 01:28 | -10.46591 | -77.27039 | 29367 ft | 435 kts | 207° |
| 2026-04-24 01:28 | -10.49245 | -77.28466 | 28901 ft | 429 kts | 202° |
| 2026-04-24 01:29 | -10.52050 | -77.29426 | 28446 ft | 422 kts | 190° |
| 2026-04-24 01:29 | -10.54935 | -77.29793 | 27985 ft | 416 kts | 179° |
| 2026-04-24 01:29 | -10.57811 | -77.29839 | 27526 ft | 412 kts | 179° |
| 2026-04-24 01:29 | -10.60668 | -77.29884 | 27062 ft | 409 kts | 179° |
| 2026-04-24 01:30 | -10.63513 | -77.29932 | 26546 ft | 408 kts | 179° |
| 2026-04-24 01:30 | -10.66346 | -77.29984 | 26062 ft | 407 kts | 179° |
| 2026-04-24 01:30 | -10.69173 | -77.30038 | 25562 ft | 406 kts | 179° |
| 2026-04-24 01:30 | -10.71957 | -77.30086 | 25066 ft | 404 kts | 179° |
| 2026-04-24 01:31 | -10.74806 | -77.30135 | 24535 ft | 404 kts | 179° |
| 2026-04-24 01:31 | -10.77557 | -77.30184 | 24175 ft | 399 kts | 179° |
| 2026-04-24 01:31 | -10.80357 | -77.30236 | 23734 ft | 396 kts | 179° |
| 2026-04-24 01:31 | -10.83073 | -77.30283 | 23255 ft | 394 kts | 179° |
| 2026-04-24 01:32 | -10.85796 | -77.30326 | 22578 ft | 388 kts | 179° |
| 2026-04-24 01:32 | -10.88479 | -77.30369 | 21778 ft | 383 kts | 179° |
| 2026-04-24 01:32 | -10.91111 | -77.30415 | 21180 ft | 372 kts | 179° |
| 2026-04-24 01:32 | -10.93691 | -77.30464 | 20681 ft | 370 kts | 179° |
| 2026-04-24 01:33 | -10.96259 | -77.30511 | 20181 ft | 371 kts | 179° |
| 2026-04-24 01:33 | -10.98847 | -77.30560 | 19673 ft | 371 kts | 179° |
| 2026-04-24 01:33 | -11.01423 | -77.30607 | 19220 ft | 370 kts | 179° |
| 2026-04-24 01:33 | -11.03132 | -77.30638 | 18919 ft | 370 kts | 179° |
| 2026-04-24 01:34 | -11.05679 | -77.30685 | 18470 ft | 362 kts | 179° |
| 2026-04-24 01:34 | -11.08178 | -77.30731 | 17760 ft | 355 kts | 179° |
| 2026-04-24 01:34 | -11.10602 | -77.30775 | 17285 ft | 342 kts | 179° |
| 2026-04-24 01:34 | -11.12954 | -77.30818 | 16835 ft | 336 kts | 179° |
| 2026-04-24 01:35 | -11.15282 | -77.30860 | 16406 ft | 334 kts | 180° |
| 2026-04-24 01:35 | -11.17605 | -77.30902 | 15955 ft | 334 kts | 179° |
| 2026-04-24 01:35 | -11.19907 | -77.30939 | 15586 ft | 330 kts | 179° |
| 2026-04-24 01:35 | -11.22211 | -77.30976 | 15155 ft | 328 kts | 180° |
| 2026-04-24 01:36 | -11.24479 | -77.31015 | 14624 ft | 325 kts | 181° |
| 2026-04-24 01:36 | -11.26731 | -77.31054 | 14128 ft | 321 kts | 181° |
| 2026-04-24 01:36 | -11.28954 | -77.31094 | 13665 ft | 317 kts | 181° |
| 2026-04-24 01:36 | -11.31156 | -77.31135 | 13213 ft | 315 kts | 181° |
| 2026-04-24 01:37 | -11.33336 | -77.31174 | 12762 ft | 313 kts | 181° |
| 2026-04-24 01:37 | -11.35521 | -77.31213 | 12330 ft | 313 kts | 181° |
| 2026-04-24 01:37 | -11.37671 | -77.31252 | 11911 ft | 313 kts | 182° |
| 2026-04-24 01:37 | -11.39877 | -77.31290 | 11486 ft | 313 kts | 181° |
| 2026-04-24 01:38 | -11.42059 | -77.31327 | 11051 ft | 314 kts | 181° |
| 2026-04-24 01:38 | -11.44243 | -77.31362 | 10655 ft | 314 kts | 181° |
| 2026-04-24 01:38 | -11.46416 | -77.31396 | 10315 ft | 312 kts | 181° |
| 2026-04-24 01:38 | -11.48550 | -77.31429 | 9813 ft | 308 kts | 181° |
| 2026-04-24 01:39 | -11.50674 | -77.31464 | 9323 ft | 303 kts | 182° |
| 2026-04-24 01:39 | -11.52775 | -77.31499 | 8903 ft | 301 kts | 181° |
| 2026-04-24 01:39 | -11.54861 | -77.31531 | 8507 ft | 298 kts | 180° |
| 2026-04-24 01:39 | -11.56894 | -77.31189 | 8334 ft | 299 kts | 161° |
| 2026-04-24 01:40 | -11.58836 | -77.30432 | 7938 ft | 298 kts | 158° |
| 2026-04-24 01:40 | -11.60756 | -77.29647 | 7516 ft | 297 kts | 158° |
| 2026-04-24 01:40 | -11.62667 | -77.28854 | 7067 ft | 297 kts | 158° |
| 2026-04-24 01:40 | -11.64576 | -77.28056 | 6727 ft | 293 kts | 157° |
| 2026-04-24 01:41 | -11.66468 | -77.27264 | 6265 ft | 293 kts | 157° |
| 2026-04-24 01:41 | -11.68351 | -77.26482 | 5800 ft | 293 kts | 158° |
| 2026-04-24 01:41 | -11.70209 | -77.25715 | 5531 ft | 284 kts | 158° |
| 2026-04-24 01:41 | -11.72036 | -77.24959 | 5138 ft | 282 kts | 158° |
| 2026-04-24 01:42 | -11.73848 | -77.24208 | 4761 ft | 279 kts | 158° |
| 2026-04-24 01:42 | -11.75641 | -77.23469 | 4362 ft | 276 kts | 157° |
| 2026-04-24 01:42 | -11.77399 | -77.22744 | 4099 ft | 268 kts | 158° |
| 2026-04-24 01:42 | -11.79105 | -77.22038 | 3704 ft | 267 kts | 158° |
| 2026-04-24 01:43 | -11.80835 | -77.21320 | 3289 ft | 266 kts | 158° |
| 2026-04-24 01:43 | -11.82516 | -77.20623 | 3108 ft | 255 kts | 158° |
| 2026-04-24 01:43 | -11.84098 | -77.19966 | 3012 ft | 241 kts | 158° |
| 2026-04-24 01:43 | -11.85607 | -77.19375 | 3015 ft | 225 kts | 161° |
| 2026-04-24 01:44 | -11.87058 | -77.18839 | 2910 ft | 219 kts | 157° |
| 2026-04-24 01:44 | -11.88434 | -77.18208 | 2681 ft | 215 kts | 154° |
| 2026-04-24 01:44 | -11.89780 | -77.17548 | 2397 ft | 215 kts | 154° |
| 2026-04-24 01:44 | -11.91121 | -77.16888 | 2130 ft | 213 kts | 154° |
| 2026-04-24 01:45 | -11.92432 | -77.16242 | 1864 ft | 203 kts | 154° |
| 2026-04-24 01:45 | -11.93657 | -77.15638 | 1640 ft | 187 kts | 154° |
| 2026-04-24 01:45 | -11.94783 | -77.15083 | 1363 ft | 172 kts | 154° |
| 2026-04-24 01:45 | -11.95800 | -77.14582 | 1149 ft | 152 kts | 154° |
| 2026-04-24 01:46 | -11.96720 | -77.14128 | 933 ft | 143 kts | 154° |
| 2026-04-24 01:46 | -11.97601 | -77.13694 | 741 ft | 139 kts | 155° |
| 2026-04-24 01:46 | -11.98461 | -77.13275 | 570 ft | 135 kts | 154° |
| 2026-04-24 01:46 | -11.99297 | -77.12868 | 398 ft | 131 kts | 152° |
| 2026-04-24 01:47 | -12.00116 | -77.12458 | 237 ft | 130 kts | 151° |
| 2026-04-24 01:47 | -12.00926 | -77.12055 | 73 ft | 129 kts | 152° |
| 2026-04-24 01:47 | -12.01602 | -77.11720 | 66 ft | 82 kts | 153° |
| 2026-04-24 01:47 | -12.01988 | -77.11529 | 67 ft | 46 kts | 154° |
| 2026-04-24 01:48 | -12.02180 | -77.11395 | 84 ft | 24 kts | 134° |
| 2026-04-24 01:48 | -12.02264 | -77.11306 | 86 ft | 13 kts | 133° |
| 2026-04-24 01:48 | -12.02313 | -77.11246 | 88 ft | 9 kts | 126° |
| 2026-04-24 01:48 | -12.02347 | -77.11197 | 92 ft | 8 kts | 126° |
| 2026-04-24 01:49 | -12.02373 | -77.11156 | 91 ft | 6 kts | 117° |
| 2026-04-24 01:49 | -12.02385 | -77.11124 | 90 ft | 3 kts | 94° |
| 2026-04-24 01:49 | -12.02381 | -77.11120 | 90 ft | 0 kts | 49° |
| 2026-04-24 01:49 | -12.02370 | -77.11113 | 91 ft | 4 kts | 30° |
| 2026-04-24 01:50 | -12.02331 | -77.11104 | 92 ft | 5 kts | 10° |
| 2026-04-24 01:50 | -12.02300 | -77.11098 | 91 ft | 6 kts | 11° |
| 2026-04-24 01:50 | -12.02256 | -77.11065 | 92 ft | 7 kts | 40° |
| 2026-04-24 01:50 | -12.02243 | -77.11035 | 94 ft | 3 kts | 77° |
| 2026-04-24 01:51 | -12.02240 | -77.11025 | 92 ft | 0 kts | 77° |
| 2026-04-24 01:51 | -12.02240 | -77.11024 | 92 ft | 0 kts | 77° |